Time;durP1;ratioP1;P1;durP2;ratioP2;P2;SDS_P1;SDS_P2;PMS_P1;PMS_P2;Temp;Humidity;BMP_temperature;BMP_pressure;BME280_temperature;BME280_humidity;BME280_pressure;Samples;Min_cycle;Max_cycle;Signal;HPM_P1;HPM_P2
2024/01/19 00:02:11;;;;;;;23.30;13.60;;;;;;;1.88;63.55;99403.25;6212674;22;97707;-80
2024/01/19 00:04:36;;;;;;;26.67;14.53;;;;;;;1.81;64.10;99414.56;6213017;22;96493;-81
2024/01/19 00:07:02;;;;;;;23.40;14.87;;;;;;;1.82;63.85;99411.09;6187870;22;96811;-82
2024/01/19 00:09:27;;;;;;;22.33;13.40;;;;;;;1.88;64.00;99429.13;6213709;22;97758;-80
2024/01/19 00:11:53;;;;;;;22.10;13.50;;;;;;;1.73;64.13;99406.91;6188210;22;101427;-82
2024/01/19 00:14:18;;;;;;;30.00;14.73;;;;;;;1.74;63.58;99415.50;6187761;22;96435;-80
2024/01/19 00:16:44;;;;;;;21.97;14.43;;;;;;;1.85;64.08;99436.94;6163335;22;96958;-81
2024/01/19 00:19:10;;;;;;;22.83;13.47;;;;;;;1.87;63.77;99439.53;6162948;22;100831;-81
2024/01/19 00:21:45;;;;;;;20.93;11.83;;;;;;;1.78;63.76;99423.22;6213719;22;97361;-80
2024/01/19 00:24:12;;;;;;;21.07;13.30;;;;;;;1.89;63.70;99453.28;6162977;22;96778;-81
2024/01/19 00:26:38;;;;;;;24.37;14.33;;;;;;;1.95;63.81;99454.09;6188831;22;96678;-83
2024/01/19 00:29:03;;;;;;;24.87;13.97;;;;;;;1.98;63.84;99453.19;6188393;22;98222;-81
2024/01/19 00:31:29;;;;;;;28.33;14.23;;;;;;;1.91;64.25;99449.81;6188368;22;101432;-80
2024/01/19 00:33:54;;;;;;;23.13;14.20;;;;;;;1.91;64.04;99446.34;6213984;22;96519;-81
2024/01/19 00:36:20;;;;;;;25.17;14.27;;;;;;;1.56;64.69;99420.03;6188431;22;96754;-81
2024/01/19 00:38:45;;;;;;;24.77;13.57;;;;;;;1.83;63.99;99440.41;6213106;22;97938;-81
2024/01/19 00:41:11;;;;;;;19.60;13.03;;;;;;;1.83;64.37;99446.44;6213695;22;97429;-81
2024/01/19 00:43:38;;;;;;;29.67;15.27;;;;;;;1.87;63.94;99439.53;6163082;22;96615;-81
2024/01/19 00:46:04;;;;;;;28.27;16.27;;;;;;;1.83;64.00;99436.09;6163025;22;96757;-81
2024/01/19 00:48:29;;;;;;;20.47;13.80;;;;;;;1.94;64.13;99447.16;6213523;22;100330;-80
2024/01/19 00:50:55;;;;;;;22.70;13.67;;;;;;;1.93;64.20;99461.00;6213616;22;97740;-80
2024/01/19 00:53:21;;;;;;;22.37;13.90;;;;;;;1.94;63.99;99467.88;6213955;22;96390;-80
2024/01/19 00:55:46;;;;;;;25.50;14.67;;;;;;;1.84;63.97;99452.50;6214224;22;96917;-80
2024/01/19 00:58:12;;;;;;;28.17;15.20;;;;;;;1.76;64.06;99463.78;6213563;22;101399;-80
2024/01/19 01:00:37;;;;;;;27.47;15.13;;;;;;;1.74;63.91;99443.97;6187851;22;101860;-83
2024/01/19 01:03:03;;;;;;;25.73;14.97;;;;;;;1.96;64.11;99481.66;6187948;22;96530;-80
2024/01/19 01:05:28;;;;;;;28.53;14.87;;;;;;;1.92;64.12;99476.53;6188541;22;96726;-81
2024/01/19 01:07:54;;;;;;;24.80;14.43;;;;;;;2.00;63.93;99490.25;6162742;22;101635;-81
2024/01/19 01:10:19;;;;;;;26.30;15.20;;;;;;;1.88;64.24;99480.06;6213578;22;97347;-82
2024/01/19 01:12:45;;;;;;;25.57;14.73;;;;;;;1.83;63.96;99477.50;6213805;22;96487;-80
2024/01/19 01:15:11;;;;;;;25.87;14.17;;;;;;;1.97;64.22;99491.13;6188317;22;96812;-81
2024/01/19 01:17:36;;;;;;;22.60;13.77;;;;;;;1.94;64.39;99498.09;6162391;22;101332;-80
2024/01/19 01:20:03;;;;;;;25.93;15.00;;;;;;;1.91;64.35;99498.13;6215186;22;97514;-80
2024/01/19 01:22:28;;;;;;;28.07;15.30;;;;;;;1.91;63.88;99514.50;6188517;22;96550;-81
2024/01/19 01:24:53;;;;;;;24.50;15.70;;;;;;;1.69;64.20;99476.84;6213952;22;96458;-81
2024/01/19 01:27:19;;;;;;;27.13;14.83;;;;;;;1.69;63.90;99482.00;6161941;22;101356;-80
2024/01/19 01:29:45;;;;;;;25.23;15.87;;;;;;;1.83;63.90;99510.28;6187889;22;100933;-81
2024/01/19 01:32:11;;;;;;;24.43;14.83;;;;;;;1.69;63.95;99500.97;6213796;22;96437;-81
2024/01/19 01:34:36;;;;;;;28.93;15.43;;;;;;;1.84;64.05;99522.38;6213860;22;96598;-81
2024/01/19 01:37:02;;;;;;;24.37;14.50;;;;;;;1.81;64.14;99518.09;6187941;22;97414;-81
2024/01/19 01:39:27;;;;;;;28.73;15.60;;;;;;;1.74;63.84;99496.56;6213384;22;98228;-80
2024/01/19 01:41:53;;;;;;;24.43;15.60;;;;;;;1.78;63.92;99523.31;6188230;22;96592;-81
2024/01/19 01:44:18;;;;;;;23.27;14.40;;;;;;;1.84;64.14;99524.97;6188639;22;96738;-80
2024/01/19 01:46:44;;;;;;;27.73;14.70;;;;;;;1.71;63.73;99509.56;6187706;22;101796;-82
2024/01/19 01:49:09;;;;;;;24.93;14.70;;;;;;;1.63;63.69;99495.88;6213237;22;100978;-81
2024/01/19 01:51:35;;;;;;;26.67;14.87;;;;;;;1.55;63.55;99489.91;6162238;22;96523;-81
2024/01/19 01:54:02;;;;;;;24.17;14.87;;;;;;;1.75;63.44;99525.94;6213061;22;96810;-80
2024/01/19 01:56:27;;;;;;;28.17;15.63;;;;;;;1.77;63.21;99526.75;6187930;22;98004;-80
2024/01/19 01:58:54;;;;;;;29.43;15.27;;;;;;;1.75;63.01;99533.69;6187706;22;101204;-80
2024/01/19 02:01:20;;;;;;;27.13;15.60;;;;;;;1.64;63.44;99541.56;6162931;22;96540;-81
2024/01/19 02:03:46;;;;;;;22.47;14.13;;;;;;;1.63;63.39;99539.84;6188282;22;96851;-80
2024/01/19 02:06:11;;;;;;;27.13;14.57;;;;;;;1.58;63.51;99534.72;6187866;22;98089;-81
2024/01/19 02:08:39;;;;;;;32.70;17.17;;;;;;;1.56;62.77;99548.53;6188159;22;101852;-80
2024/01/19 02:11:04;;;;;;;19.17;12.10;;;;;;;1.54;62.96;99558.03;6187902;22;96559;-81
2024/01/19 02:13:30;;;;;;;23.60;13.23;;;;;;;1.54;62.84;99577.03;6214972;22;96721;-80
2024/01/19 02:15:59;;;;;;;19.23;11.33;;;;;;;1.45;62.38;99573.63;6187052;22;101049;-81
2024/01/19 02:18:26;;;;;;;18.77;10.63;;;;;;;1.30;62.13;99548.78;6213452;22;98025;-80
2024/01/19 02:20:55;;;;;;;16.67;9.77;;;;;;;1.50;61.51;99574.47;6188021;22;96480;-81
2024/01/19 02:23:21;;;;;;;13.70;8.27;;;;;;;1.34;61.21;99568.56;6187676;22;96764;-82
2024/01/19 02:25:47;;;;;;;14.27;8.03;;;;;;;1.20;60.75;99545.41;6187777;22;98350;-80
2024/01/19 02:28:13;;;;;;;16.20;7.13;;;;;;;1.27;60.56;99569.47;6213286;22;97604;-81
2024/01/19 02:30:40;;;;;;;12.13;7.97;;;;;;;1.20;60.24;99562.66;6187398;22;96481;-83
2024/01/19 02:33:06;;;;;;;12.47;7.53;;;;;;;1.18;59.79;99565.25;6213460;22;96756;-81
2024/01/19 02:35:31;;;;;;;12.87;6.50;;;;;;;1.40;59.57;99602.16;6187842;22;97815;-81
2024/01/19 02:37:57;;;;;;;11.17;6.50;;;;;;;1.27;59.40;99603.09;6213116;22;97953;-81
2024/01/19 02:40:22;;;;;;;13.83;7.07;;;;;;;0.99;59.37;99563.66;6187328;22;96472;-81
2024/01/19 02:42:48;;;;;;;10.00;6.70;;;;;;;1.30;59.34;99619.44;6187900;22;96645;-81
2024/01/19 02:45:13;;;;;;;12.57;6.63;;;;;;;1.24;58.83;99628.97;6213387;22;97747;-82
2024/01/19 02:47:39;;;;;;;10.93;7.10;;;;;;;1.08;58.93;99621.34;6213137;22;97417;-81
2024/01/19 02:50:05;;;;;;;11.60;7.03;;;;;;;1.07;59.17;99618.75;6213667;22;96477;-80
2024/01/19 02:52:31;;;;;;;14.03;6.73;;;;;;;1.17;58.51;99638.53;6187699;22;96825;-81
2024/01/19 02:54:56;;;;;;;13.40;7.53;;;;;;;1.14;59.13;99646.28;6161830;22;101077;-81
2024/01/19 02:57:21;;;;;;;15.37;8.00;;;;;;;1.04;58.93;99639.44;6162600;22;100939;-81
2024/01/19 02:59:47;;;;;;;14.63;7.30;;;;;;;1.16;58.83;99672.97;6162431;22;96527;-81
2024/01/19 03:02:12;;;;;;;14.57;7.60;;;;;;;1.03;59.10;99653.25;6213327;22;96862;-81
2024/01/19 03:04:38;;;;;;;16.27;7.63;;;;;;;1.01;58.83;99655.84;6186399;22;99526;-81
2024/01/19 03:07:04;;;;;;;14.60;7.57;;;;;;;0.96;58.49;99646.38;6187406;22;101318;-81
2024/01/19 03:09:29;;;;;;;14.30;7.93;;;;;;;1.09;58.65;99679.91;6162659;22;96926;-81
2024/01/19 03:11:55;;;;;;;13.33;7.00;;;;;;;1.06;58.50;99685.09;6187723;22;96540;-81
2024/01/19 03:14:20;;;;;;;20.23;7.80;;;;;;;1.01;58.31;99686.84;6187165;22;101896;-81
2024/01/19 03:16:46;;;;;;;20.93;8.60;;;;;;;1.02;58.38;99695.47;6162167;22;101061;-81
2024/01/19 03:19:13;;;;;;;18.50;8.10;;;;;;;1.01;58.35;99709.25;6187669;22;96480;-81
2024/01/19 03:21:39;;;;;;;16.13;7.40;;;;;;;0.88;58.62;99690.38;6188123;22;96727;-82
2024/01/19 03:24:05;;;;;;;18.87;8.43;;;;;;;0.85;58.42;99693.84;6187408;22;97941;-81
2024/01/19 03:26:30;;;;;;;21.90;8.87;;;;;;;0.73;58.55;99678.41;6162101;22;101203;-81
2024/01/19 03:28:55;;;;;;;23.07;8.63;;;;;;;0.81;58.57;99689.53;6187008;22;96517;-81
2024/01/19 03:31:21;;;;;;;21.20;8.83;;;;;;;0.60;58.56;99682.72;6187557;22;96773;-80
2024/01/19 03:33:47;;;;;;;17.70;9.07;;;;;;;0.68;58.64;99699.06;6212821;22;97573;-80
2024/01/19 03:36:13;;;;;;;15.33;8.13;;;;;;;0.80;58.34;99720.56;6214265;22;97216;-81
2024/01/19 03:38:38;;;;;;;12.17;6.90;;;;;;;0.74;58.47;99715.41;6162272;22;96570;-80
2024/01/19 03:41:04;;;;;;;16.33;8.50;;;;;;;0.69;58.64;99715.41;6162401;22;96768;-83
2024/01/19 03:43:29;;;;;;;11.40;6.97;;;;;;;0.70;58.24;99718.84;6161495;22;101482;-80
2024/01/19 03:45:55;;;;;;;12.47;7.53;;;;;;;0.76;58.54;99736.94;6213284;22;98254;-81
2024/01/19 03:48:20;;;;;;;11.53;7.03;;;;;;;0.37;58.76;99672.47;6187415;22;96501;-81
2024/01/19 03:50:46;;;;;;;14.90;8.13;;;;;;;0.64;58.64;99733.53;6213238;22;96722;-81
2024/01/19 03:53:11;;;;;;;12.07;7.50;;;;;;;0.60;58.50;99718.91;6212066;22;98039;-81
2024/01/19 03:55:37;;;;;;;17.77;8.43;;;;;;;0.62;58.71;99719.75;6186645;22;101469;-81
2024/01/19 03:58:02;;;;;;;28.87;10.63;;;;;;;0.78;58.56;99748.13;6162079;22;96634;-81
2024/01/19 04:00:28;;;;;;;23.50;9.37;;;;;;;0.77;58.09;99739.50;6213042;22;96454;-81
2024/01/19 04:02:54;;;;;;;24.63;11.53;;;;;;;0.77;58.41;99742.09;6212625;22;97446;-81
2024/01/19 04:05:20;;;;;;;30.10;10.83;;;;;;;0.66;58.58;99728.34;6161718;22;101155;-82
2024/01/19 04:07:45;;;;;;;25.97;10.73;;;;;;;0.68;58.43;99755.06;6213016;22;96473;-81
2024/01/19 04:10:11;;;;;;;33.70;12.03;;;;;;;0.53;58.42;99731.84;6187818;22;96836;-81
2024/01/19 04:12:36;;;;;;;34.40;13.20;;;;;;;0.62;58.15;99758.50;6186979;22;97992;-80
2024/01/19 04:15:02;;;;;;;25.67;11.93;;;;;;;0.56;58.26;99750.78;6186687;22;101225;-80
2024/01/19 04:17:28;;;;;;;30.00;12.93;;;;;;;0.56;57.99;99752.50;6161382;22;96507;-80
2024/01/19 04:19:53;;;;;;;23.00;11.77;;;;;;;0.37;58.25;99736.19;6187186;22;96931;-80
2024/01/19 04:22:19;;;;;;;20.87;10.80;;;;;;;0.45;nan;99755.97;6186825;22;101380;-81
2024/01/19 04:24:44;;;;;;;14.93;9.43;;;;;;;0.44;58.36;99755.97;6212544;22;97554;-81
2024/01/19 04:27:10;;;;;;;15.80;10.33;;;;;;;0.40;58.56;99755.09;6187292;22;96680;-81
2024/01/19 04:29:35;;;;;;;14.67;9.00;;;;;;;0.22;58.52;99735.34;6187108;22;96830;-80
2024/01/19 04:32:01;;;;;;;16.70;8.43;;;;;;;0.25;58.59;99754.28;6186658;22;97695;-81
2024/01/19 04:34:27;;;;;;;17.80;9.10;;;;;;;0.33;58.53;99776.63;6187146;22;101088;-81
2024/01/19 04:36:52;;;;;;;14.43;10.13;;;;;;;0.08;58.46;99731.06;6161771;22;96513;-81
2024/01/19 04:39:18;;;;;;;15.57;10.33;;;;;;;0.03;58.02;99715.59;6212726;22;96639;-80
2024/01/19 04:41:43;;;;;;;19.27;10.43;;;;;;;0.30;58.35;99768.03;6185990;22;101093;-81
2024/01/19 04:44:09;;;;;;;15.50;9.60;;;;;;;0.29;58.17;99769.78;6213747;22;97755;-83
2024/01/19 04:46:35;;;;;;;20.53;9.00;;;;;;;0.35;58.54;99784.38;6187180;22;96689;-82
2024/01/19 04:49:00;;;;;;;15.13;9.47;;;;;;;0.24;58.23;99775.81;6187162;22;96661;-81
2024/01/19 04:51:26;;;;;;;14.87;8.73;;;;;;;0.28;58.42;99775.78;6186599;22;101988;-81
2024/01/19 04:53:51;;;;;;;16.67;9.37;;;;;;;0.33;58.29;99786.13;6185834;22;97987;-81
2024/01/19 04:56:17;;;;;;;22.53;11.40;;;;;;;0.22;57.97;99776.66;6213792;22;96470;-81
2024/01/19 04:58:42;;;;;;;34.13;14.60;;;;;;;0.39;57.75;99802.44;6216100;22;96769;-81
2024/01/19 05:01:08;;;;;;;30.37;13.33;;;;;;;0.06;58.04;99779.22;6162838;22;100829;-81
2024/01/19 05:03:33;;;;;;;32.90;13.30;;;;;;;0.22;57.98;99814.50;6188159;22;97883;-81
2024/01/19 05:05:59;;;;;;;27.37;13.10;;;;;;;0.32;57.90;99816.25;6187852;22;96525;-81
2024/01/19 05:08:24;;;;;;;21.20;12.17;;;;;;;0.11;57.95;99791.28;6213868;22;96509;-83
2024/01/19 05:10:50;;;;;;;20.50;11.63;;;;;;;0.22;58.31;99817.94;6187952;22;101672;-81
2024/01/19 05:13:15;;;;;;;21.20;11.10;;;;;;;0.11;58.21;99796.44;6213318;22;97799;-81
2024/01/19 05:15:44;;;;;;;24.83;11.77;;;;;;;0.16;58.31;99814.50;6188140;22;96625;-80
2024/01/19 05:18:10;;;;;;;17.90;10.40;;;;;;;-0.03;58.15;99800.72;6213864;22;96809;-82
2024/01/19 05:20:38;;;;;;;20.50;11.13;;;;;;;0.11;58.11;99823.97;6213512;22;97783;-81
2024/01/19 05:23:04;;;;;;;17.90;11.13;;;;;;;-0.22;57.75;99781.81;6188068;22;101197;-82
2024/01/19 05:25:30;;;;;;;20.57;11.70;;;;;;;0.02;58.48;99827.41;6188444;22;96563;-81
2024/01/19 05:27:55;;;;;;;17.47;10.80;;;;;;;-0.12;58.57;99822.22;6188322;22;96693;-81
2024/01/19 05:30:22;;;;;;;17.97;10.73;;;;;;;-0.08;58.10;99825.69;6187300;22;100896;-80
2024/01/19 05:32:48;;;;;;;18.63;12.07;;;;;;;-0.16;58.17;99830.81;6187743;22;101637;-81
2024/01/19 05:35:13;;;;;;;20.07;11.10;;;;;;;-0.14;57.82;99823.09;6188218;22;96547;-81
2024/01/19 05:37:39;;;;;;;19.63;11.20;;;;;;;-0.21;58.05;99829.09;6213757;22;96754;-81
2024/01/19 05:40:05;;;;;;;21.70;12.00;;;;;;;-0.17;58.01;99830.84;6213450;22;97992;-80
2024/01/19 05:42:31;;;;;;;21.00;11.03;;;;;;;-0.20;57.86;99836.84;6188040;22;97958;-81
2024/01/19 05:44:56;;;;;;;21.00;11.90;;;;;;;-0.12;57.80;99853.19;6213656;22;96566;-81
2024/01/19 05:47:22;;;;;;;24.87;13.40;;;;;;;-0.41;58.12;99818.72;6215747;22;96691;-81
2024/01/19 05:49:47;;;;;;;23.23;12.87;;;;;;;-0.21;58.18;99854.91;6212736;22;100618;-81
2024/01/19 05:52:13;;;;;;;25.60;12.77;;;;;;;-0.38;57.40;99823.91;6214931;22;97289;-81
2024/01/19 05:54:39;;;;;;;18.97;11.47;;;;;;;-0.28;57.98;99861.75;6186968;22;97096;-81
2024/01/19 05:57:04;;;;;;;22.27;12.50;;;;;;;-0.19;57.68;99877.25;6188351;22;96633;-81
2024/01/19 05:59:30;;;;;;;20.87;12.67;;;;;;;-0.39;57.87;99854.00;6162340;22;101502;-83
2024/01/19 06:01:55;;;;;;;19.90;11.30;;;;;;;-0.23;57.87;99883.28;6187789;22;97887;-81
2024/01/19 06:04:22;;;;;;;23.90;11.87;;;;;;;-0.39;58.09;99860.88;6213523;22;96494;-82
2024/01/19 06:06:47;;;;;;;31.23;13.83;;;;;;;-0.22;57.72;99889.31;6188076;22;96738;-81
2024/01/19 06:09:13;;;;;;;26.00;14.70;;;;;;;-0.16;57.61;99899.63;6213245;22;97280;-81
2024/01/19 06:11:39;;;;;;;24.37;12.83;;;;;;;-0.37;57.09;99861.75;6213417;22;100929;-81
2024/01/19 06:14:04;;;;;;;33.00;15.77;;;;;;;-0.15;57.39;99898.75;6213378;22;96489;-82
2024/01/19 06:16:30;;;;;;;22.90;13.50;;;;;;;-0.20;57.30;99906.50;6188029;22;96717;-81
2024/01/19 06:18:57;;;;;;;29.53;14.93;;;;;;;-0.23;57.49;99898.75;6186470;22;101844;-81
2024/01/19 06:21:24;;;;;;;25.23;13.97;;;;;;;-0.39;57.47;99876.34;6214748;22;97980;-82
2024/01/19 06:23:50;;;;;;;23.70;13.63;;;;;;;-0.56;57.20;99859.09;6187723;22;96591;-81
2024/01/19 06:26:16;;;;;;;25.17;13.33;;;;;;;-0.30;57.43;99905.59;6213648;22;96723;-82
2024/01/19 06:28:42;;;;;;;27.10;14.47;;;;;;;-0.32;57.19;99896.13;6162179;22;101195;-81
2024/01/19 06:31:10;;;;;;;27.37;14.10;;;;;;;-0.36;57.09;99909.88;6187563;22;101175;-81
2024/01/19 06:33:36;;;;;;;23.00;13.07;;;;;;;-0.66;57.43;99871.94;6188038;22;96593;-82
2024/01/19 06:36:07;;;;;;;27.67;13.83;;;;;;;-0.43;57.78;99913.31;6213312;22;96873;-81
2024/01/19 06:38:33;;;;;;;25.70;13.33;;;;;;;-0.29;57.37;99917.66;6162608;22;101208;-81
2024/01/19 06:40:58;;;;;;;25.90;13.37;;;;;;;-0.31;57.19;99919.38;6213044;22;97968;-80
2024/01/19 06:43:24;;;;;;;25.17;13.97;;;;;;;-0.19;57.16;99918.53;6212495;22;96473;-80
2024/01/19 06:45:49;;;;;;;28.20;14.07;;;;;;;-0.30;57.02;99909.91;6213546;22;96729;-80
2024/01/19 06:48:18;;;;;;;30.07;16.40;;;;;;;-0.29;57.66;99924.50;6187159;22;99896;-80
2024/01/19 06:50:57;;;;;;;25.63;14.50;;;;;;;-0.31;57.07;99901.31;6187037;22;97583;-82
2024/01/19 06:53:23;;;;;;;25.93;15.67;;;;;;;-0.45;57.22;99892.66;6187283;22;96533;-80
2024/01/19 06:55:49;;;;;;;32.93;14.90;;;;;;;-0.31;57.22;99934.84;6132226;22;96894;-81
2024/01/19 06:58:27;;;;;;;27.10;14.37;;;;;;;-0.77;57.29;99859.88;6131664;22;100441;-82
2024/01/19 07:00:53;;;;;;;27.73;15.33;;;;;;;-0.81;57.06;99844.41;6134303;22;99724;-83
2024/01/19 07:03:22;;;;;;;27.47;13.03;;;;;;;-0.28;57.22;99923.69;6157368;22;96585;-82
2024/01/19 07:05:56;;;;;;;31.27;14.68;;;;;;;-0.67;57.29;99858.19;6133599;22;96766;-82
2024/01/19 07:08:23;;;;;;;32.83;15.33;;;;;;;-0.44;57.32;99889.22;6132347;22;97980;-81
2024/01/19 07:10:52;;;;;;;27.10;13.40;;;;;;;-0.55;56.68;99865.13;6156800;22;101049;-82
2024/01/19 07:13:17;;;;;;;30.33;14.70;;;;;;;-0.39;57.04;99905.56;6157386;22;96503;-81
2024/01/19 07:15:43;;;;;;;28.20;16.50;;;;;;;-0.27;56.96;99939.16;6132081;22;96910;-81
2024/01/19 07:18:12;;;;;;;31.70;18.23;;;;;;;-0.44;57.07;99904.69;6181417;22;102038;-80
2024/01/19 07:21:03;;;;;;;27.93;16.47;;;;;;;-0.39;56.88;99903.00;6162739;22;97065;-82
2024/01/19 07:23:29;;;;;;;39.53;19.80;;;;;;;-0.37;56.83;99895.28;6131980;22;96522;-82
2024/01/19 07:25:54;;;;;;;34.03;16.87;;;;;;;-0.11;56.38;99934.91;6183123;22;96775;-81
2024/01/19 07:28:20;;;;;;;27.03;14.77;;;;;;;-0.41;56.97;99884.06;6131719;22;101334;-81
2024/01/19 07:30:45;;;;;;;28.13;12.97;;;;;;;-0.07;56.55;99939.22;6156497;22;99670;-83
2024/01/19 07:33:11;;;;;;;25.63;13.53;;;;;;;-0.04;56.26;99940.94;6156653;22;96468;-82
2024/01/19 07:35:36;;;;;;;26.73;13.43;;;;;;;0.02;56.58;99947.84;6157107;22;96865;-80
2024/01/19 07:38:03;;;;;;;26.40;13.90;;;;;;;0.11;56.21;99945.28;6181906;22;101238;-81
2024/01/19 07:40:29;;;;;;;34.43;13.50;;;;;;;0.16;56.57;99966.81;6156946;22;101602;-80
2024/01/19 07:42:55;;;;;;;28.60;13.30;;;;;;;0.12;56.75;99950.47;6182382;22;96491;-80
2024/01/19 07:45:20;;;;;;;25.00;13.53;;;;;;;0.03;56.74;99940.13;6132116;22;97192;-80
2024/01/19 07:47:45;;;;;;;37.80;15.13;;;;;;;0.12;56.61;99954.78;6156723;22;101044;-83
2024/01/19 07:50:11;;;;;;;28.47;14.07;;;;;;;0.14;56.34;99942.72;6183908;22;98338;-81
2024/01/19 07:52:38;;;;;;;23.60;12.90;;;;;;;0.01;56.30;99952.16;6132097;22;96590;-81
2024/01/19 07:55:04;;;;;;;27.37;12.47;;;;;;;0.02;56.66;99964.19;6152426;22;96783;-81
2024/01/19 07:57:30;;;;;;;25.07;11.53;;;;;;;-0.09;56.81;99933.22;6186105;22;100182;-81
2024/01/19 07:59:55;;;;;;;24.87;11.00;;;;;;;0.06;56.09;99950.47;6214426;22;98486;-81
2024/01/19 08:02:21;;;;;;;22.27;11.57;;;;;;;-0.18;55.85;99911.66;6212681;22;96550;-81
2024/01/19 08:04:47;;;;;;;22.33;11.63;;;;;;;-0.03;55.90;99940.06;6213044;22;96721;-81
2024/01/19 08:07:12;;;;;;;22.53;12.53;;;;;;;-0.19;55.63;99905.63;6186914;22;100829;-81
2024/01/19 08:09:38;;;;;;;22.73;10.83;;;;;;;0.26;55.98;99962.53;6186992;22;97827;-81
2024/01/19 08:12:04;;;;;;;26.60;11.43;;;;;;;0.25;56.16;99976.31;6162050;22;96497;-83
2024/01/19 08:14:29;;;;;;;26.50;12.00;;;;;;;0.20;55.86;99950.47;6187387;22;96805;-80
2024/01/19 08:16:55;;;;;;;25.40;11.87;;;;;;;0.21;55.89;99955.66;6186599;22;101071;-81
2024/01/19 08:19:20;;;;;;;21.73;10.77;;;;;;;0.16;55.60;99933.25;6186785;22;97836;-82
2024/01/19 08:21:46;;;;;;;19.40;9.77;;;;;;;0.40;55.92;99955.66;6212217;22;96468;-83
2024/01/19 08:24:12;;;;;;;21.37;10.37;;;;;;;0.28;55.58;99933.28;6186903;22;96769;-81
2024/01/19 08:26:38;;;;;;;21.00;10.00;;;;;;;0.51;54.99;99972.03;6213856;22;98106;-81
2024/01/19 08:29:03;;;;;;;24.97;11.27;;;;;;;0.70;55.46;99978.09;6186828;22;97598;-81
2024/01/19 08:31:30;;;;;;;18.40;10.83;;;;;;;0.67;54.72;99965.19;6188092;22;96485;-80
2024/01/19 08:33:59;;;;;;;24.33;11.10;;;;;;;0.49;55.42;99944.47;6188237;22;96815;-80
2024/01/19 08:36:24;;;;;;;28.00;11.87;;;;;;;0.72;55.51;99985.84;6213565;22;98425;-80
2024/01/19 08:38:50;;;;;;;30.73;13.30;;;;;;;0.78;55.21;99989.28;6188411;22;101218;-80
2024/01/19 08:41:16;;;;;;;25.97;12.47;;;;;;;0.55;55.64;99958.25;6163045;22;96508;-82
2024/01/19 08:43:42;;;;;;;25.40;12.43;;;;;;;0.91;54.79;99990.16;6215379;22;96698;-81
2024/01/19 08:46:07;;;;;;;25.77;13.67;;;;;;;0.72;55.04;99980.66;6187835;22;101263;-81
2024/01/19 08:48:33;;;;;;;31.23;13.20;;;;;;;0.70;54.50;99987.56;6162703;22;101123;-81
2024/01/19 08:50:59;;;;;;;26.50;12.97;;;;;;;0.79;54.61;99996.19;6188374;22;96460;-81
2024/01/19 08:53:24;;;;;;;30.40;13.57;;;;;;;0.92;54.36;100015.13;6213907;22;96702;-81
2024/01/19 08:55:50;;;;;;;30.63;14.67;;;;;;;1.01;54.49;100024.63;6192863;22;101670;-80
2024/01/19 08:58:16;;;;;;;31.13;13.93;;;;;;;1.13;54.11;100004.81;6218627;22;97448;-81
2024/01/19 09:00:42;;;;;;;42.00;18.03;;;;;;;1.02;53.83;99998.78;6193147;22;96508;-81
2024/01/19 09:03:08;;;;;;;38.63;16.23;;;;;;;1.12;53.98;100022.91;6219561;22;96789;-81
2024/01/19 09:05:34;;;;;;;39.83;16.60;;;;;;;1.02;54.38;100022.03;6193127;22;98399;-81
2024/01/19 09:08:00;;;;;;;47.37;17.30;;;;;;;1.17;53.57;100031.53;6192868;22;100687;-81
2024/01/19 09:10:26;;;;;;;30.17;15.97;;;;;;;1.12;53.90;100041.00;6218326;22;96537;-80
2024/01/19 09:12:52;;;;;;;32.87;14.17;;;;;;;1.16;54.36;100049.59;6167764;22;96860;-83
2024/01/19 09:15:17;;;;;;;38.20;14.10;;;;;;;1.23;54.27;100051.34;6192706;22;101267;-81
2024/01/19 09:17:43;;;;;;;31.93;12.63;;;;;;;1.30;53.85;100058.22;6192945;22;97361;-81
2024/01/19 09:20:10;;;;;;;26.60;12.60;;;;;;;1.31;54.02;100049.63;6218598;22;96582;-81
2024/01/19 09:22:35;;;;;;;25.73;12.33;;;;;;;1.34;53.79;100032.38;6218858;22;96685;-81
2024/01/19 09:25:01;;;;;;;26.10;11.50;;;;;;;1.39;53.95;100058.22;6218390;22;97481;-81
2024/01/19 09:27:27;;;;;;;27.03;12.47;;;;;;;1.65;53.89;100075.44;6167907;22;101653;-81
2024/01/19 09:29:53;;;;;;;27.67;11.70;;;;;;;1.66;53.55;100085.78;6192884;22;96464;-81
2024/01/19 09:32:18;;;;;;;22.80;10.10;;;;;;;1.64;53.47;100076.31;6193095;22;96896;-81
2024/01/19 09:34:47;;;;;;;21.80;11.43;;;;;;;1.56;53.71;100056.47;6191939;22;101279;-81
2024/01/19 09:37:12;;;;;;;25.63;11.80;;;;;;;1.62;53.32;100058.19;6218236;22;97929;-81
2024/01/19 09:39:38;;;;;;;26.87;12.03;;;;;;;1.81;53.44;100087.50;6193019;22;96497;-81
2024/01/19 09:42:07;;;;;;;22.87;10.73;;;;;;;1.86;53.58;100093.50;6192935;22;96917;-81
2024/01/19 09:44:36;;;;;;;23.87;10.57;;;;;;;1.85;53.32;100099.53;6218336;22;97955;-81
2024/01/19 09:47:07;;;;;;;28.27;11.43;;;;;;;1.80;52.99;100090.91;6192489;22;100401;-81
2024/01/19 09:49:39;;;;;;;28.53;12.30;;;;;;;1.92;53.19;100103.88;6218839;22;96519;-81
2024/01/19 09:52:18;;;;;;;31.35;11.98;;;;;;;1.92;52.81;100109.03;6219377;22;96565;-82
2024/01/19 09:54:44;;;;;;;25.53;10.50;;;;;;;2.01;52.81;100085.72;6217683;22;101198;-81
2024/01/19 09:57:10;;;;;;;25.43;10.60;;;;;;;2.48;52.70;100096.75;6192544;22;101337;-81
2024/01/19 09:59:36;;;;;;;19.80;9.40;;;;;;;2.69;52.45;100101.81;6218134;22;96545;-81
2024/01/19 10:02:01;;;;;;;23.53;10.07;;;;;;;2.94;52.68;100092.19;6218493;22;96867;-81
2024/01/19 10:04:27;;;;;;;24.07;9.10;;;;;;;3.06;51.86;100092.97;6192636;22;97481;-81
2024/01/19 10:06:54;;;;;;;21.50;8.73;;;;;;;3.33;51.57;100104.88;6192493;22;100846;-82
2024/01/19 10:09:21;;;;;;;18.93;8.13;;;;;;;3.58;51.10;100102.94;6193229;22;96550;-80
2024/01/19 10:11:52;;;;;;;17.93;8.20;;;;;;;3.83;51.24;100107.00;6192908;22;96808;-82
2024/01/19 10:14:18;;;;;;;21.10;8.50;;;;;;;4.05;50.68;100094.66;6192337;22;101469;-81
2024/01/19 10:16:43;;;;;;;20.33;9.23;;;;;;;3.86;50.67;100054.16;6192644;22;101686;-80
2024/01/19 10:19:12;;;;;;;21.53;10.07;;;;;;;4.37;50.30;100114.22;6193150;22;96480;-81
2024/01/19 10:21:38;;;;;;;24.47;10.00;;;;;;;4.29;49.58;100064.06;6218824;22;96684;-81
2024/01/19 10:24:11;;;;;;;24.23;10.70;;;;;;;4.72;49.40;100115.50;6191971;22;97597;-80
2024/01/19 10:26:37;;;;;;;25.97;11.30;;;;;;;4.77;48.62;100090.31;6218109;22;96859;-81
2024/01/19 10:29:13;;;;;;;35.17;10.10;;;;;;;4.97;48.93;100103.91;6218605;22;96468;-81
2024/01/19 10:31:41;;;;;;;21.07;8.43;;;;;;;5.17;48.63;100105.31;6167795;22;96790;-81
2024/01/19 10:34:18;;;;;;;30.15;10.93;;;;;;;5.09;47.96;100099.38;6218137;22;97965;-81
2024/01/19 10:36:44;;;;;;;28.77;10.20;;;;;;;5.15;47.79;100102.75;6192488;22;101490;-81
2024/01/19 10:39:20;;;;;;;22.20;9.97;;;;;;;5.18;47.88;100107.06;6192863;22;96545;-81
2024/01/19 10:41:46;;;;;;;21.63;9.23;;;;;;;4.94;48.31;100108.25;6246469;22;96712;-81
2024/01/19 10:44:14;;;;;;;21.75;8.75;;;;;;;4.97;48.52;100077.00;6218063;22;97696;-82
2024/01/19 10:46:40;;;;;;;20.05;8.85;;;;;;;5.23;48.17;100084.41;6218203;22;97848;-81
2024/01/19 10:49:10;;;;;;;17.48;7.80;;;;;;;5.17;47.86;100095.75;6166400;22;96998;-81
2024/01/19 10:51:40;;;;;;;22.98;10.70;;;;;;;5.18;48.10;100094.91;6192945;22;96932;-81
2024/01/19 10:54:06;;;;;;;23.37;8.50;;;;;;;5.07;47.74;100077.72;6165758;22;101324;-80
2024/01/19 10:56:31;;;;;;;21.10;8.67;;;;;;;5.29;47.63;100092.09;6192590;22;97554;-81
2024/01/19 10:59:11;;;;;;;26.15;9.32;;;;;;;5.07;47.74;100098.56;6218502;22;96493;-82
2024/01/19 11:01:38;;;;;;;23.67;8.52;;;;;;;4.90;48.25;100083.19;6218989;22;96669;-82
2024/01/19 11:04:10;;;;;;;22.88;7.68;;;;;;;4.95;48.46;100095.25;6192197;22;98078;-81
2024/01/19 11:06:38;;;;;;;24.92;8.25;;;;;;;5.06;48.58;100084.69;6192846;22;101790;-81
2024/01/19 11:09:07;;;;;;;20.48;8.07;;;;;;;4.98;48.84;100055.31;6218950;22;96605;-81
2024/01/19 11:11:38;;;;;;;15.73;6.07;;;;;;;5.17;48.76;100087.09;6167698;22;96738;-82
2024/01/19 11:14:07;;;;;;;15.50;5.77;;;;;;;5.10;48.55;100085.50;6191628;22;100630;-81
2024/01/19 11:16:44;;;;;;;14.35;5.55;;;;;;;5.03;48.88;100084.69;6191839;22;101527;-82
2024/01/19 11:19:10;;;;;;;13.63;5.00;;;;;;;5.09;49.11;100088.97;6218283;22;96505;-81